createdAt,value
2019-06-20T00:00:14.125Z,20.9
2019-06-20T00:01:16.786Z,20.8
2019-06-20T00:02:19.510Z,20.8
2019-06-20T00:03:22.287Z,20.8
2019-06-20T00:04:25.042Z,20.8
2019-06-20T00:05:27.805Z,20.7
2019-06-20T00:06:30.514Z,20.7
2019-06-20T00:07:33.223Z,20.7
2019-06-20T00:08:35.967Z,20.7
2019-06-20T00:09:38.650Z,20.6
2019-06-20T00:10:42.025Z,20.6
2019-06-20T00:11:44.757Z,20.6
2019-06-20T00:12:59.785Z,20.6
2019-06-20T00:14:03.357Z,20.5
2019-06-20T00:15:06.009Z,20.5
2019-06-20T00:16:08.752Z,20.5
2019-06-20T00:17:11.533Z,20.6
2019-06-20T00:18:14.331Z,20.6
2019-06-20T00:19:17.110Z,20.6
2019-06-20T00:20:19.876Z,20.7
2019-06-20T00:21:22.615Z,20.7
2019-06-20T00:22:25.356Z,20.8
2019-06-20T00:23:28.262Z,20.9
2019-06-20T00:24:33.006Z,20.9
2019-06-20T00:25:37.685Z,20.9
2019-06-20T00:26:40.282Z,20.9
2019-06-20T00:27:43.057Z,20.9
2019-06-20T00:28:45.760Z,20.8
2019-06-20T00:29:48.485Z,20.8
2019-06-20T00:30:51.225Z,20.8
2019-06-20T00:31:53.993Z,20.9
2019-06-20T00:32:56.746Z,20.8
2019-06-20T00:33:59.504Z,20.8
2019-06-20T00:35:02.208Z,20.8
2019-06-20T00:36:05.012Z,20.8
2019-06-20T00:37:08.761Z,20.8
2019-06-20T00:38:11.431Z,20.9
2019-06-20T00:39:14.170Z,20.9
2019-06-20T00:40:18.915Z,20.8
2019-06-20T00:41:21.581Z,20.8
2019-06-20T00:42:26.354Z,20.9
2019-06-20T00:43:29.006Z,20.9
2019-06-20T00:44:31.751Z,20.8
2019-06-20T00:45:34.525Z,20.8
2019-06-20T00:46:37.241Z,20.9
2019-06-20T00:47:40.008Z,20.8
2019-06-20T00:48:42.822Z,20.8
2019-06-20T00:49:45.614Z,20.7
2019-06-20T00:50:48.330Z,20.7
2019-06-20T00:51:57.602Z,20.8
2019-06-20T00:53:00.036Z,20.8
2019-06-20T00:54:02.795Z,20.8
2019-06-20T00:55:05.575Z,20.9
2019-06-20T00:56:08.290Z,21
2019-06-20T00:57:11.077Z,21.3
2019-06-20T00:58:13.819Z,21.5
2019-06-20T00:59:16.561Z,21.5
2019-06-20T01:00:19.346Z,21.7
2019-06-20T01:01:22.104Z,21.7
2019-06-20T01:02:24.853Z,21.7
2019-06-20T01:03:27.571Z,21.7
2019-06-20T01:04:30.346Z,21.7
2019-06-20T01:05:33.148Z,21.7
2019-06-20T01:06:35.860Z,21.7
2019-06-20T01:07:38.612Z,21.7
2019-06-20T01:08:41.335Z,21.6
2019-06-20T01:09:46.101Z,21.6
2019-06-20T01:10:48.811Z,21.6
2019-06-20T01:11:51.580Z,21.6
2019-06-20T01:12:54.339Z,21.6
2019-06-20T01:13:57.105Z,21.6
2019-06-20T01:14:59.883Z,21.6
2019-06-20T01:16:02.671Z,21.5
2019-06-20T01:17:05.484Z,21.4
2019-06-20T01:18:10.219Z,21.2
2019-06-20T01:19:12.846Z,21
2019-06-20T01:20:15.578Z,20.9
2019-06-20T01:21:18.302Z,20.6
2019-06-20T01:22:23.093Z,20.5
2019-06-20T01:23:25.736Z,20.4
2019-06-20T01:24:28.477Z,20.3
2019-06-20T01:25:31.279Z,20.1
2019-06-20T01:26:34.057Z,20.1
2019-06-20T01:27:36.784Z,20
2019-06-20T01:28:39.566Z,20
2019-06-20T01:29:44.312Z,19.9
2019-06-20T01:30:48.951Z,19.9
2019-06-20T01:31:51.599Z,19.7
2019-06-20T01:32:54.303Z,19.7
2019-06-20T01:33:57.035Z,19.6
2019-06-20T01:34:59.780Z,19.6
2019-06-20T01:36:02.524Z,19.5
2019-06-20T01:37:05.333Z,19.3
2019-06-20T01:38:08.083Z,19.2
2019-06-20T01:39:10.813Z,19
2019-06-20T01:40:13.578Z,18.9
2019-06-20T01:41:16.333Z,18.8
2019-06-20T01:42:19.106Z,18.7
2019-06-20T01:43:21.856Z,18.6
2019-06-20T01:44:24.638Z,18.5
2019-06-20T01:45:27.431Z,18.4
2019-06-20T01:46:32.159Z,18.4
2019-06-20T01:47:34.794Z,18.4
2019-06-20T01:48:37.539Z,18.4
2019-06-20T01:49:40.309Z,18.4
2019-06-20T01:50:43.061Z,18.3
2019-06-20T01:51:45.806Z,18.3
2019-06-20T01:52:48.548Z,18.3
2019-06-20T01:53:51.246Z,18.3
2019-06-20T01:54:54.006Z,18.3
2019-06-20T01:55:56.758Z,18.3
2019-06-20T01:56:59.512Z,18.2
2019-06-20T01:58:02.247Z,18.2
2019-06-20T01:59:04.995Z,18.2
2019-06-20T02:00:07.848Z,18.2
2019-06-20T02:01:10.645Z,18.2
2019-06-20T02:02:13.396Z,18.1
2019-06-20T02:03:16.126Z,18.1
2019-06-20T02:04:19.899Z,18.1
2019-06-20T02:05:22.786Z,18
2019-06-20T02:06:25.524Z,18
2019-06-20T02:07:28.454Z,18
2019-06-20T02:08:31.242Z,18
2019-06-20T02:09:36.006Z,18
2019-06-20T02:10:38.667Z,17.9
2019-06-20T02:11:43.474Z,17.9
2019-06-20T02:12:46.148Z,17.9
2019-06-20T02:13:48.867Z,17.8
2019-06-20T02:14:51.683Z,17.8
2019-06-20T02:15:54.416Z,17.8
2019-06-20T02:16:57.163Z,17.8
2019-06-20T02:18:01.922Z,17.8
2019-06-20T02:19:04.555Z,17.8
2019-06-20T02:20:07.309Z,17.8
2019-06-20T02:21:10.076Z,17.8
2019-06-20T02:22:12.833Z,17.8
2019-06-20T02:23:17.546Z,17.7
2019-06-20T02:24:20.224Z,17.7
2019-06-20T02:25:22.942Z,17.7
2019-06-20T02:26:27.678Z,17.7
2019-06-20T02:27:30.299Z,17.6
2019-06-20T02:28:34.195Z,17.6
2019-06-20T02:29:36.865Z,17.6
2019-06-20T02:30:39.616Z,17.6
2019-06-20T02:31:42.394Z,17.6
2019-06-20T02:32:45.144Z,17.6
2019-06-20T02:33:49.830Z,17.6
2019-06-20T02:34:52.548Z,17.6
2019-06-20T02:35:55.319Z,17.6
2019-06-20T02:36:58.092Z,17.6
2019-06-20T02:38:00.868Z,17.5
2019-06-20T02:39:03.659Z,17.5
2019-06-20T02:40:08.458Z,17.5
2019-06-20T02:41:11.138Z,17.4
2019-06-20T02:42:13.895Z,17.4
2019-06-20T02:43:16.631Z,17.4
2019-06-20T02:44:29.662Z,17.5
2019-06-20T02:45:33.395Z,17.5
2019-06-20T02:46:36.090Z,17.5
2019-06-20T02:47:38.851Z,17.5
2019-06-20T02:48:41.628Z,17.5
2019-06-20T02:49:46.366Z,17.6
2019-06-20T02:50:49.068Z,17.6
2019-06-20T02:51:51.768Z,17.6
2019-06-20T02:52:54.579Z,17.6
2019-06-20T02:53:59.329Z,17.7
2019-06-20T02:55:02.064Z,17.7
2019-06-20T02:56:04.891Z,17.7
2019-06-20T02:57:07.639Z,17.7
2019-06-20T02:58:10.396Z,17.6
2019-06-20T02:59:13.185Z,17.7
2019-06-20T03:00:15.957Z,17.7
2019-06-20T03:01:18.708Z,17.6
2019-06-20T03:02:21.479Z,17.6
2019-06-20T03:03:24.263Z,17.6
2019-06-20T03:04:26.997Z,17.6
2019-06-20T03:05:29.807Z,17.6
2019-06-20T03:06:34.544Z,17.7
2019-06-20T03:07:37.202Z,17.7
2019-06-20T03:08:39.975Z,17.7
2019-06-20T03:09:44.714Z,17.8
2019-06-20T03:10:47.310Z,17.8
2019-06-20T03:11:50.060Z,17.8
2019-06-20T03:12:52.802Z,17.8
2019-06-20T03:13:55.560Z,17.8
2019-06-20T03:14:58.333Z,17.8
2019-06-20T03:16:01.100Z,17.8
2019-06-20T03:17:03.872Z,17.7
2019-06-20T03:18:06.644Z,17.8
2019-06-20T03:19:09.406Z,17.8
2019-06-20T03:20:12.156Z,17.8
2019-06-20T03:21:16.919Z,17.8
2019-06-20T03:22:21.597Z,17.8
2019-06-20T03:23:24.258Z,17.8
2019-06-20T03:24:26.977Z,17.9
2019-06-20T03:25:31.715Z,17.9
2019-06-20T03:26:34.487Z,17.9
2019-06-20T03:27:37.231Z,17.9
2019-06-20T03:28:39.977Z,17.9
2019-06-20T03:29:42.713Z,17.9
2019-06-20T03:30:45.499Z,17.8
2019-06-20T03:31:50.279Z,17.9
2019-06-20T03:32:52.909Z,17.8
2019-06-20T03:33:55.629Z,17.9
2019-06-20T03:34:58.466Z,17.9
2019-06-20T03:36:01.315Z,17.9
2019-06-20T03:37:04.322Z,18
2019-06-20T03:38:07.052Z,18
2019-06-20T03:39:09.796Z,18
2019-06-20T03:40:12.543Z,18
2019-06-20T03:41:17.332Z,18
2019-06-20T03:42:19.899Z,18
2019-06-20T03:43:22.609Z,18
2019-06-20T03:44:25.343Z,18
2019-06-20T03:45:28.051Z,18
2019-06-20T03:46:30.813Z,18
2019-06-20T03:47:33.546Z,18
2019-06-20T03:48:36.310Z,18
2019-06-20T03:49:39.078Z,18
2019-06-20T03:50:41.828Z,18
2019-06-20T03:51:44.599Z,18
2019-06-20T03:52:47.354Z,18
2019-06-20T03:53:50.082Z,18
2019-06-20T03:54:54.815Z,18
2019-06-20T03:55:57.490Z,18
2019-06-20T03:57:00.225Z,17.9
2019-06-20T03:58:04.962Z,18
2019-06-20T03:59:07.603Z,18
2019-06-20T04:00:10.351Z,18
2019-06-20T04:01:13.103Z,18
2019-06-20T04:02:15.823Z,17.9
2019-06-20T04:03:18.570Z,17.9
2019-06-20T04:04:21.383Z,17.9
2019-06-20T04:05:24.112Z,17.9
2019-06-20T04:06:26.858Z,17.9
2019-06-20T04:07:29.596Z,18
2019-06-20T04:08:32.349Z,18.1
2019-06-20T04:09:35.135Z,18.1
2019-06-20T04:10:37.888Z,18.1
2019-06-20T04:11:40.629Z,18.1
2019-06-20T04:12:43.308Z,18.2
2019-06-20T04:13:46.036Z,18.2
2019-06-20T04:14:50.730Z,18.2
2019-06-20T04:15:53.440Z,18.2
2019-06-20T04:16:56.176Z,18.2
2019-06-20T04:17:58.888Z,18.2
2019-06-20T04:19:01.575Z,18.2
2019-06-20T04:20:04.456Z,18.3
2019-06-20T04:21:09.207Z,18.3
2019-06-20T04:22:11.854Z,18.4
2019-06-20T04:23:14.551Z,18.4
2019-06-20T04:24:19.259Z,18.5
2019-06-20T04:25:22.066Z,18.5
2019-06-20T04:26:24.816Z,18.5
2019-06-20T04:27:27.765Z,18.6
2019-06-20T04:28:30.524Z,18.6
2019-06-20T04:29:35.835Z,18.6
2019-06-20T04:30:38.627Z,18.7
2019-06-20T04:31:41.372Z,18.7
2019-06-20T04:32:46.126Z,18.7
2019-06-20T04:33:48.813Z,18.7
2019-06-20T04:34:51.549Z,18.8
2019-06-20T04:35:54.304Z,18.9
2019-06-20T04:36:57.029Z,19
2019-06-20T04:37:59.754Z,19.1
2019-06-20T04:39:15.580Z,19.1
2019-06-20T04:40:21.985Z,19.3
2019-06-20T04:41:24.709Z,19.3
2019-06-20T04:42:27.435Z,19.3
2019-06-20T04:43:30.157Z,19.4
2019-06-20T04:44:32.874Z,19.4
2019-06-20T04:45:35.865Z,19.5
2019-06-20T04:46:38.692Z,19.5
2019-06-20T04:47:41.494Z,19.5
2019-06-20T04:48:44.250Z,19.6
2019-06-20T04:49:47.023Z,19.6
2019-06-20T04:50:49.860Z,19.7
2019-06-20T04:51:52.577Z,19.7
2019-06-20T04:52:55.313Z,19.8
2019-06-20T04:53:58.078Z,19.8
2019-06-20T04:55:00.887Z,19.7
2019-06-20T04:56:05.956Z,19.7
2019-06-20T04:57:10.681Z,19.7
2019-06-20T04:58:15.396Z,19.7
2019-06-20T04:59:20.006Z,19.7
2019-06-20T05:00:22.660Z,19.7
2019-06-20T05:01:25.402Z,19.6
2019-06-20T05:02:28.147Z,19.6
2019-06-20T05:03:30.915Z,19.6
2019-06-20T05:04:35.694Z,19.6
2019-06-20T05:05:38.309Z,19.6
2019-06-20T05:06:43.044Z,19.7
2019-06-20T05:07:45.710Z,19.6
2019-06-20T05:08:48.526Z,19.6
2019-06-20T05:09:51.293Z,19.5
2019-06-20T05:10:54.006Z,19.5
2019-06-20T05:11:56.744Z,19.4
2019-06-20T05:12:59.502Z,19.4
2019-06-20T05:14:04.242Z,19.3
2019-06-20T05:15:06.876Z,19.4
2019-06-20T05:16:11.627Z,19.4
2019-06-20T05:17:14.283Z,19.4
2019-06-20T05:18:17.036Z,19.5
2019-06-20T05:19:19.776Z,19.5
2019-06-20T05:20:22.552Z,19.5
2019-06-20T05:21:25.310Z,19.6
2019-06-20T05:22:28.069Z,19.6
2019-06-20T05:23:30.826Z,19.7
2019-06-20T05:24:33.584Z,19.8
2019-06-20T05:25:36.317Z,19.9
2019-06-20T05:26:39.133Z,20
2019-06-20T05:27:41.926Z,20.1
2019-06-20T05:28:44.680Z,20.2
2019-06-20T05:29:47.426Z,20.3
2019-06-20T05:30:50.204Z,20.3
2019-06-20T05:31:52.963Z,20.4
2019-06-20T05:32:55.782Z,20.5
2019-06-20T05:33:58.488Z,20.6
2019-06-20T05:35:03.013Z,20.6
2019-06-20T05:36:06.059Z,20.6
2019-06-20T05:37:08.834Z,20.5
2019-06-20T05:38:11.577Z,20.6
2019-06-20T05:39:14.296Z,20.7
2019-06-20T05:40:17.148Z,20.8
2019-06-20T05:41:19.887Z,20.7
2019-06-20T05:42:22.678Z,20.8
2019-06-20T05:43:25.416Z,21
2019-06-20T05:44:28.209Z,21
2019-06-20T05:45:30.974Z,21.2
2019-06-20T05:46:33.745Z,21.1
2019-06-20T05:47:36.472Z,21.1
2019-06-20T05:48:39.286Z,21.1
2019-06-20T05:49:42.217Z,21.2
2019-06-20T05:50:44.983Z,21.2
2019-06-20T05:51:49.752Z,21.2
2019-06-20T05:52:52.880Z,21.2
2019-06-20T05:53:55.735Z,21.3
2019-06-20T05:54:58.477Z,21.3
2019-06-20T05:56:01.214Z,21.3
2019-06-20T05:57:04.729Z,21.3
2019-06-20T05:58:07.523Z,21.3
2019-06-20T05:59:12.272Z,21.3
2019-06-20T06:00:16.904Z,21.3
2019-06-20T06:01:21.557Z,21.4
2019-06-20T06:02:24.208Z,21.4
2019-06-20T06:03:26.985Z,21.4
2019-06-20T06:04:29.791Z,21.5
2019-06-20T06:05:32.575Z,21.5
2019-06-20T06:06:37.340Z,21.5
2019-06-20T06:07:42.038Z,21.7
2019-06-20T06:08:46.680Z,21.7
2019-06-20T06:09:49.279Z,21.8
2019-06-20T06:10:51.953Z,21.8
2019-06-20T06:11:54.709Z,22
2019-06-20T06:12:57.413Z,22
2019-06-20T06:14:00.138Z,22.1
2019-06-20T06:15:02.872Z,22.3
2019-06-20T06:16:05.641Z,22.5
2019-06-20T06:17:08.373Z,22.5
2019-06-20T06:18:14.118Z,22.8
2019-06-20T06:19:16.852Z,22.9
2019-06-20T06:20:19.559Z,23
2019-06-20T06:21:22.293Z,23.1
2019-06-20T06:22:25.034Z,23.3
2019-06-20T06:23:27.917Z,23.4
2019-06-20T06:24:30.629Z,23.2
2019-06-20T06:25:33.390Z,23.3
2019-06-20T06:26:36.174Z,23.2
2019-06-20T06:27:38.963Z,23.2
2019-06-20T06:28:41.714Z,23.1
2019-06-20T06:29:44.476Z,23
2019-06-20T06:30:47.207Z,22.9
2019-06-20T06:31:49.941Z,22.8
2019-06-20T06:32:52.663Z,22.7
2019-06-20T06:33:55.414Z,22.4
2019-06-20T06:34:58.174Z,22.4
2019-06-20T06:36:00.917Z,22.4
2019-06-20T06:37:05.627Z,22.4
2019-06-20T06:38:08.269Z,22.4
2019-06-20T06:39:10.983Z,22.3
2019-06-20T06:40:13.891Z,22.4
2019-06-20T06:41:17.208Z,22.5
2019-06-20T06:42:20.783Z,22.6
2019-06-20T06:43:23.935Z,22.8
2019-06-20T06:44:31.647Z,23.1
2019-06-20T06:45:34.464Z,23.1
2019-06-20T06:46:44.159Z,23.1
2019-06-20T06:47:56.462Z,23.3
2019-06-20T06:48:59.167Z,23.4
2019-06-20T06:50:01.882Z,23.4
2019-06-20T06:51:04.617Z,23.3
2019-06-20T06:52:09.369Z,23
2019-06-20T06:53:17.476Z,22.9
2019-06-20T06:54:24.658Z,22.8
2019-06-20T06:55:27.741Z,22.4
2019-06-20T06:56:30.741Z,22.4
2019-06-20T06:57:33.428Z,22.1
2019-06-20T06:58:36.153Z,22.1
2019-06-20T06:59:38.974Z,21.7
2019-06-20T07:00:41.701Z,21.8
2019-06-20T07:01:44.450Z,21.9
2019-06-20T07:02:47.327Z,22
2019-06-20T07:03:50.121Z,22
2019-06-20T07:04:52.885Z,22
2019-06-20T07:05:55.637Z,22.1
2019-06-20T07:06:58.429Z,22
2019-06-20T07:08:01.212Z,22.2
2019-06-20T07:09:03.955Z,22.5
2019-06-20T07:10:08.711Z,22.6
2019-06-20T07:11:11.346Z,22.4
2019-06-20T07:12:14.119Z,22.4
2019-06-20T07:13:16.843Z,22.4
2019-06-20T07:14:19.623Z,22.4
2019-06-20T07:15:22.361Z,22.6
2019-06-20T07:16:25.100Z,22.6
2019-06-20T07:17:27.853Z,22.7
2019-06-20T07:18:30.647Z,22.7
2019-06-20T07:19:33.374Z,22.7
2019-06-20T07:20:36.105Z,22.7
2019-06-20T07:21:38.883Z,22.7
2019-06-20T07:22:41.650Z,22.6
2019-06-20T07:23:44.390Z,22.5
2019-06-20T07:24:47.127Z,22.6
2019-06-20T07:25:49.937Z,22.6
2019-06-20T07:26:52.708Z,22.7
2019-06-20T07:27:55.466Z,22.7
2019-06-20T07:29:00.239Z,22.7
2019-06-20T07:30:02.911Z,22.8
2019-06-20T07:31:05.667Z,22.8
2019-06-20T07:32:08.417Z,22.9
2019-06-20T07:33:11.122Z,22.9
2019-06-20T07:34:13.890Z,22.9
2019-06-20T07:35:16.653Z,22.9
2019-06-20T07:36:19.437Z,22.8
2019-06-20T07:37:22.176Z,22.6
2019-06-20T07:38:26.919Z,22.5
2019-06-20T07:39:29.591Z,22.6
2019-06-20T07:40:32.351Z,22.6
2019-06-20T07:41:35.122Z,22.6
2019-06-20T07:42:39.838Z,22.6
2019-06-20T07:43:42.485Z,22.5
2019-06-20T07:44:45.288Z,22.6
2019-06-20T07:46:01.845Z,22.6
2019-06-20T07:47:16.910Z,22.6
2019-06-20T07:48:20.468Z,22.6
2019-06-20T07:49:23.227Z,22.6
2019-06-20T07:50:25.984Z,22.6
2019-06-20T07:51:28.803Z,22.6
2019-06-20T07:52:31.531Z,22.7
2019-06-20T07:53:34.265Z,22.9
2019-06-20T07:54:37.031Z,22.7
2019-06-20T07:55:39.830Z,22.6
2019-06-20T07:56:42.596Z,22.6
2019-06-20T07:57:45.427Z,22.7
2019-06-20T07:58:48.258Z,22.9
2019-06-20T07:59:51.007Z,23
2019-06-20T08:00:53.798Z,23.1
2019-06-20T08:01:56.683Z,23.1
2019-06-20T08:02:59.415Z,23.3
2019-06-20T08:04:02.297Z,23.6
2019-06-20T08:05:07.437Z,23.7
2019-06-20T08:06:10.147Z,24.1
2019-06-20T08:07:12.894Z,24.3
2019-06-20T08:08:15.625Z,24.5
2019-06-20T08:09:21.899Z,24.7
2019-06-20T08:10:24.805Z,24.8
2019-06-20T08:11:27.567Z,24.9
2019-06-20T08:12:30.315Z,25.1
2019-06-20T08:13:33.111Z,25.2
2019-06-20T08:14:35.871Z,25.3
2019-06-20T08:15:38.635Z,25.2
2019-06-20T08:16:41.460Z,25.5
2019-06-20T08:17:44.305Z,25.6
2019-06-20T08:18:47.275Z,25.7
2019-06-20T08:19:50.066Z,26
2019-06-20T08:20:52.845Z,26.2
2019-06-20T08:21:55.594Z,26.6
2019-06-20T08:22:58.324Z,26.8
2019-06-20T08:24:01.098Z,27
2019-06-20T08:25:05.282Z,27
2019-06-20T08:26:08.113Z,27.2
2019-06-20T08:27:10.810Z,27.7
2019-06-20T08:28:13.580Z,28.2
2019-06-20T08:29:20.951Z,28.4
2019-06-20T08:30:24.105Z,28.6
2019-06-20T08:31:26.820Z,28.7
2019-06-20T08:32:29.569Z,29.3
2019-06-20T08:33:32.322Z,30
2019-06-20T08:34:35.056Z,30.6
2019-06-20T08:35:37.780Z,29.9
2019-06-20T08:36:40.536Z,30.5
2019-06-20T08:37:43.271Z,30.5
2019-06-20T08:38:46.431Z,30.4
2019-06-20T08:39:51.186Z,30.4
2019-06-20T08:40:53.833Z,30.8
2019-06-20T08:41:57.098Z,31.6
2019-06-20T08:43:04.113Z,32.2
2019-06-20T08:44:06.867Z,33.1
2019-06-20T08:45:09.593Z,34.3
2019-06-20T08:46:12.325Z,34.8
2019-06-20T08:47:17.101Z,34.6
2019-06-20T08:48:19.736Z,35.2
2019-06-20T08:49:22.494Z,35.6
2019-06-20T08:50:25.252Z,35.6
2019-06-20T08:51:27.969Z,34.6
2019-06-20T08:52:30.707Z,33.7
2019-06-20T08:53:33.468Z,32.6
2019-06-20T08:54:36.469Z,32.6
2019-06-20T08:55:39.248Z,31.5
2019-06-20T08:56:41.999Z,29.6
2019-06-20T08:57:44.755Z,28.8
2019-06-20T08:58:47.507Z,28.1
2019-06-20T08:59:50.397Z,27.6
2019-06-20T09:00:55.266Z,27.8
2019-06-20T09:03:05.219Z,27.8
2019-06-20T09:04:07.988Z,27.3
2019-06-20T09:05:12.749Z,27.1
2019-06-20T09:06:15.477Z,27.3
2019-06-20T09:07:20.210Z,28.2
2019-06-20T09:08:22.825Z,29
2019-06-20T09:09:25.573Z,30.5
2019-06-20T09:10:28.350Z,30.8
2019-06-20T09:11:31.118Z,31.8
2019-06-20T09:12:33.952Z,32.5
2019-06-20T09:13:36.719Z,32.4
2019-06-20T09:14:39.445Z,33.1
2019-06-20T09:15:42.302Z,34.1
2019-06-20T09:16:45.153Z,33.5
2019-06-20T09:17:47.906Z,33.8
2019-06-20T09:18:53.167Z,33.8
2019-06-20T09:19:58.026Z,34
2019-06-20T09:21:00.801Z,32.2
2019-06-20T09:22:05.053Z,32.5
2019-06-20T09:23:07.813Z,33
2019-06-20T09:24:12.559Z,31.8
2019-06-20T09:25:15.268Z,30.4
2019-06-20T09:26:20.185Z,30.1
2019-06-20T09:27:22.789Z,30.1
2019-06-20T09:28:25.566Z,29.6
2019-06-20T09:29:38.361Z,29.1
2019-06-20T09:30:44.512Z,30.4
2019-06-20T09:31:47.255Z,31.3
2019-06-20T09:32:52.184Z,31.5
2019-06-20T09:33:56.422Z,32.2
2019-06-20T09:34:59.154Z,33
2019-06-20T09:36:01.893Z,33.2
2019-06-20T09:37:04.651Z,33.6
2019-06-20T09:38:07.436Z,32.4
2019-06-20T09:39:10.205Z,32.2
2019-06-20T09:40:12.922Z,33.1
2019-06-20T09:41:15.705Z,33.8
2019-06-20T09:42:18.450Z,34.8
2019-06-20T09:43:27.445Z,34.6
2019-06-20T09:44:30.547Z,36.2
2019-06-20T09:45:33.294Z,35.8
2019-06-20T09:46:38.054Z,34
2019-06-20T09:47:42.793Z,33.7
2019-06-20T09:48:45.496Z,34.3
2019-06-20T09:49:50.580Z,34.3
2019-06-20T09:50:59.671Z,34.4
2019-06-20T09:52:04.368Z,35.5
2019-06-20T09:53:07.035Z,35.3
2019-06-20T09:54:09.841Z,33.4
2019-06-20T09:55:12.618Z,30.7
2019-06-20T09:56:15.406Z,30.2
2019-06-20T09:57:18.157Z,31.2
2019-06-20T09:58:22.943Z,33
2019-06-20T09:59:28.081Z,33.8
2019-06-20T10:00:30.773Z,34
2019-06-20T10:01:33.602Z,33.5
2019-06-20T10:02:38.433Z,31.8
2019-06-20T10:03:43.147Z,33.1
2019-06-20T10:04:46.074Z,34.5
2019-06-20T10:05:52.428Z,36
2019-06-20T10:06:56.630Z,35.7
2019-06-20T10:07:59.386Z,36.5
2019-06-20T10:09:02.151Z,36.9
2019-06-20T10:10:06.926Z,37.2
2019-06-20T10:11:09.570Z,36.8
2019-06-20T10:12:12.314Z,34.5
2019-06-20T10:13:15.179Z,32.2
2019-06-20T10:14:17.951Z,30.9
2019-06-20T10:15:22.727Z,29.9
2019-06-20T10:16:25.395Z,29.4
2019-06-20T10:17:30.156Z,28.8
2019-06-20T10:18:32.829Z,29.9
2019-06-20T10:19:35.590Z,32.1
2019-06-20T10:20:39.088Z,32.5
2019-06-20T10:21:42.122Z,33.7
2019-06-20T10:22:47.295Z,34
2019-06-20T10:23:51.924Z,34.5
2019-06-20T10:24:57.855Z,35.5
2019-06-20T10:26:00.533Z,36
2019-06-20T10:27:03.304Z,35.9
2019-06-20T10:28:06.093Z,36.7
2019-06-20T10:29:08.838Z,35.2
2019-06-20T10:30:14.488Z,34.6
2019-06-20T10:31:17.559Z,34.7
2019-06-20T10:32:20.291Z,35.1
2019-06-20T10:33:25.048Z,33.8
2019-06-20T10:34:30.460Z,35.2
2019-06-20T10:35:33.827Z,36
2019-06-20T10:36:36.570Z,34.8
2019-06-20T10:37:41.363Z,32.7
2019-06-20T10:38:45.170Z,31.2
2019-06-20T10:39:49.999Z,31.2
2019-06-20T10:40:57.817Z,30.8
2019-06-20T10:42:04.614Z,30
2019-06-20T10:43:07.292Z,29.1
2019-06-20T10:44:10.050Z,29.5
2019-06-20T10:45:12.821Z,30.8
2019-06-20T10:46:15.579Z,31.6
2019-06-20T10:47:31.445Z,31.8
2019-06-20T10:48:38.323Z,32.1
2019-06-20T10:49:42.819Z,32.7
2019-06-20T10:50:47.699Z,33.2
2019-06-20T10:51:51.864Z,33.7
2019-06-20T10:52:54.623Z,34.9
2019-06-20T10:53:57.359Z,35.3
2019-06-20T10:55:00.110Z,35.3
2019-06-20T10:56:02.858Z,34.8
2019-06-20T10:57:05.654Z,34.2
2019-06-20T10:58:08.428Z,33.5
2019-06-20T10:59:11.208Z,33.5
2019-06-20T11:00:26.721Z,33.9
2019-06-20T11:01:35.983Z,34.5
2019-06-20T11:02:38.606Z,33.2
2019-06-20T11:03:43.524Z,33.4
2019-06-20T11:04:48.179Z,33.3
2019-06-20T11:05:50.839Z,34.2
2019-06-20T11:06:53.824Z,34.3
2019-06-20T11:07:56.367Z,35.5
2019-06-20T11:08:59.091Z,35.8
2019-06-20T11:10:01.844Z,35.7
2019-06-20T11:11:04.602Z,35.7
2019-06-20T11:12:07.375Z,35.3
2019-06-20T11:13:10.142Z,35.1
2019-06-20T11:14:12.878Z,35.9
2019-06-20T11:15:15.617Z,34.8
2019-06-20T11:16:21.321Z,33.9
2019-06-20T11:17:23.922Z,33.6
2019-06-20T11:18:26.669Z,33.6
2019-06-20T11:19:29.433Z,34.7
2019-06-20T11:20:32.204Z,35.4
2019-06-20T11:21:34.983Z,35.2
2019-06-20T11:22:38.332Z,34.2
2019-06-20T11:23:45.231Z,34.4
2019-06-20T11:24:47.982Z,34.9
2019-06-20T11:25:50.734Z,35.1
2019-06-20T11:26:53.535Z,34.7
2019-06-20T11:27:56.315Z,33.5
2019-06-20T11:28:59.049Z,32.5
2019-06-20T11:30:01.794Z,32.9
2019-06-20T11:31:04.585Z,33.3
2019-06-20T11:32:07.419Z,32.8
2019-06-20T11:33:10.223Z,32.7
2019-06-20T11:34:13.089Z,32.6
2019-06-20T11:35:15.849Z,32.6
2019-06-20T11:36:18.629Z,32
2019-06-20T11:37:21.432Z,32.3
2019-06-20T11:38:24.216Z,34.5
2019-06-20T11:39:27.036Z,35.7
2019-06-20T11:40:29.816Z,37.2
2019-06-20T11:41:32.574Z,38.3
2019-06-20T11:42:36.062Z,37.3
2019-06-20T11:43:40.350Z,35.7
2019-06-20T11:44:43.163Z,35.9
2019-06-20T11:45:46.939Z,35.8
2019-06-20T11:46:49.958Z,35.3
2019-06-20T11:47:52.726Z,35.4
2019-06-20T11:48:57.482Z,35
2019-06-20T11:50:00.265Z,33.8
2019-06-20T11:51:03.053Z,33.7
2019-06-20T11:52:05.813Z,34.3
2019-06-20T11:53:08.573Z,34.4
2019-06-20T11:54:11.366Z,35.3
2019-06-20T11:55:14.230Z,35.2
2019-06-20T11:56:16.991Z,35.3
2019-06-20T11:57:19.788Z,35.7
2019-06-20T11:58:23.546Z,36.1
2019-06-20T11:59:26.340Z,35.9
2019-06-20T12:00:29.113Z,35.5
2019-06-20T12:01:33.046Z,35.1
2019-06-20T12:02:36.015Z,34.8
2019-06-20T12:03:39.516Z,35
2019-06-20T12:04:44.880Z,35.3
2019-06-20T12:05:47.672Z,34.8
2019-06-20T12:06:50.485Z,34.7
2019-06-20T12:07:53.274Z,34.7
2019-06-20T12:08:56.044Z,34.7
2019-06-20T12:09:58.806Z,34.1
2019-06-20T12:11:03.580Z,34
2019-06-20T12:12:06.251Z,34.1
2019-06-20T12:13:09.020Z,33.7
2019-06-20T12:14:11.774Z,33.7
2019-06-20T12:15:14.554Z,34.2
2019-06-20T12:16:17.287Z,34
2019-06-20T12:17:22.051Z,33.5
2019-06-20T12:18:24.731Z,32.7
2019-06-20T12:19:27.473Z,32.2
2019-06-20T12:20:32.207Z,31.7
2019-06-20T12:21:34.907Z,31.7
2019-06-20T12:22:38.285Z,31.7
2019-06-20T12:23:44.912Z,31.8
2019-06-20T12:24:48.873Z,31.6
2019-06-20T12:25:51.618Z,31.6
2019-06-20T12:26:54.334Z,31.3
2019-06-20T12:27:59.119Z,31.1
2019-06-20T12:29:01.719Z,30.9
2019-06-20T12:30:04.427Z,30.6
2019-06-20T12:31:18.821Z,30.4
2019-06-20T12:32:22.467Z,30.4
2019-06-20T12:33:25.158Z,30
2019-06-20T12:34:27.903Z,29.7
2019-06-20T12:35:30.639Z,29.5
2019-06-20T12:36:33.421Z,29
2019-06-20T12:37:36.164Z,29
2019-06-20T12:38:39.731Z,29.1
2019-06-20T12:39:44.421Z,29.4
2019-06-20T12:40:47.201Z,29.9
2019-06-20T12:41:50.299Z,30.1
2019-06-20T12:42:53.090Z,29.7
2019-06-20T12:43:55.840Z,29.3
2019-06-20T12:44:58.574Z,28.9
2019-06-20T12:46:01.295Z,28.9
2019-06-20T12:47:04.032Z,28.8
2019-06-20T12:48:06.765Z,28.3
2019-06-20T12:49:09.507Z,28.4
2019-06-20T12:50:12.240Z,28.9
2019-06-20T12:51:14.971Z,28.9
2019-06-20T12:52:17.727Z,28.9
2019-06-20T12:53:20.447Z,28.7
2019-06-20T12:54:23.225Z,28.4
2019-06-20T12:55:25.989Z,28.6
2019-06-20T12:56:28.745Z,28.7
2019-06-20T12:57:31.556Z,28.8
2019-06-20T12:58:34.418Z,28.1
2019-06-20T12:59:38.018Z,28.1
2019-06-20T13:00:45.188Z,27.9
2019-06-20T13:01:49.963Z,27.9
2019-06-20T13:02:53.826Z,28
2019-06-20T13:03:56.592Z,28.1
2019-06-20T13:04:59.372Z,28.3
2019-06-20T13:06:02.097Z,28.6
2019-06-20T13:07:04.838Z,29.2
2019-06-20T13:08:07.607Z,29.7
2019-06-20T13:09:10.438Z,30.2
2019-06-20T13:10:15.267Z,30.8
2019-06-20T13:11:17.965Z,31.2
2019-06-20T13:12:20.750Z,31
2019-06-20T13:13:23.482Z,30.3
2019-06-20T13:14:26.278Z,30.1
2019-06-20T13:15:29.065Z,29.9
2019-06-20T13:16:31.785Z,29.7
2019-06-20T13:17:34.553Z,29.8
2019-06-20T13:18:37.295Z,29.5
2019-06-20T13:19:42.061Z,29.9
2019-06-20T13:20:44.729Z,29.9
2019-06-20T13:21:48.591Z,29.4
2019-06-20T13:22:51.388Z,29.1
2019-06-20T13:23:54.169Z,29
2019-06-20T13:24:58.923Z,29.3
2019-06-20T13:26:01.604Z,29.4
2019-06-20T13:27:04.320Z,29.4
2019-06-20T13:28:07.072Z,29.4
2019-06-20T13:29:09.874Z,29.3
2019-06-20T13:30:12.616Z,29.2
2019-06-20T13:31:15.411Z,29
2019-06-20T13:32:18.161Z,29
2019-06-20T13:33:20.888Z,28.6
2019-06-20T13:34:23.648Z,28.3
2019-06-20T13:35:26.371Z,28.2
2019-06-20T13:36:29.175Z,28
2019-06-20T13:37:31.922Z,27.5
2019-06-20T13:38:34.797Z,27.2
2019-06-20T13:39:38.462Z,27
2019-06-20T13:40:47.146Z,27.2
2019-06-20T13:41:50.283Z,27.3
2019-06-20T13:42:54.666Z,27.1
2019-06-20T13:43:57.577Z,27
2019-06-20T13:45:00.473Z,27.1
2019-06-20T13:46:03.236Z,27.1
2019-06-20T13:47:06.026Z,27
2019-06-20T13:48:08.787Z,26.7
2019-06-20T13:49:11.624Z,26.5
2019-06-20T13:50:14.373Z,26.6
2019-06-20T13:51:17.114Z,26.7
2019-06-20T13:52:20.222Z,26.7
2019-06-20T13:53:23.086Z,26.7
2019-06-20T13:54:25.786Z,26.6
2019-06-20T13:55:28.509Z,26.6
2019-06-20T13:56:31.204Z,26.5
2019-06-20T13:57:33.946Z,26.4
2019-06-20T13:58:36.859Z,26.2
2019-06-20T13:59:40.243Z,26.1
2019-06-20T14:00:45.405Z,26.1
2019-06-20T14:01:49.034Z,25.9
2019-06-20T14:02:51.912Z,25.9
2019-06-20T14:03:54.907Z,25.8
2019-06-20T14:04:57.722Z,25.7
2019-06-20T14:06:00.528Z,25.7
2019-06-20T14:07:03.283Z,25.7
2019-06-20T14:08:06.102Z,25.7
2019-06-20T14:09:09.209Z,25.5